createdAt,value
2024-04-16T00:01:37.276Z,1.5
2024-04-16T00:03:17.717Z,1.5
2024-04-16T00:04:58.219Z,1.5
2024-04-16T00:06:38.506Z,1.5
2024-04-16T00:08:18.989Z,1.5
2024-04-16T00:09:59.421Z,1.5
2024-04-16T00:11:39.846Z,1.8
2024-04-16T00:13:20.277Z,1.8
2024-04-16T00:15:00.628Z,1.8
2024-04-16T00:16:41.196Z,1.8
2024-04-16T00:18:21.568Z,1.8
2024-04-16T00:20:02.019Z,1.8
2024-04-16T00:21:42.481Z,1.5
2024-04-16T00:23:22.869Z,1.5
2024-04-16T00:25:03.291Z,1.5
2024-04-16T00:26:43.660Z,1.5
2024-04-16T00:28:24.084Z,1.5
2024-04-16T00:30:04.476Z,1.5
2024-04-16T00:31:45.070Z,1.6
2024-04-16T00:33:25.411Z,1.6
2024-04-16T00:35:05.868Z,1.6
2024-04-16T00:36:46.253Z,1.6
2024-04-16T00:38:26.713Z,1.6
2024-04-16T00:40:07.266Z,1.6
2024-04-16T00:41:47.646Z,3
2024-04-16T00:43:28.034Z,3
2024-04-16T00:45:08.433Z,3
2024-04-16T00:46:48.969Z,3
2024-04-16T00:48:29.351Z,3
2024-04-16T00:50:09.753Z,3
2024-04-16T00:51:50.082Z,3.9
2024-04-16T00:53:30.497Z,3.9
2024-04-16T00:55:10.961Z,3.9
2024-04-16T00:56:51.421Z,3.9
2024-04-16T00:58:31.867Z,3.9
2024-04-16T01:00:12.253Z,3.9
2024-04-16T01:01:52.668Z,3.2
2024-04-16T01:03:33.140Z,3.2
2024-04-16T01:05:13.465Z,3.2
2024-04-16T01:06:53.887Z,3.2
2024-04-16T01:08:34.348Z,3.2
2024-04-16T01:10:14.772Z,3.2
2024-04-16T01:11:55.097Z,6.3
2024-04-16T01:13:35.688Z,6.3
2024-04-16T01:15:15.994Z,6.3
2024-04-16T01:16:56.349Z,6.3
2024-04-16T01:18:36.697Z,6.3
2024-04-16T01:20:17.126Z,6.3
2024-04-16T01:21:57.527Z,3.4
2024-04-16T01:23:37.950Z,3.4
2024-04-16T01:25:18.400Z,3.4
2024-04-16T01:26:58.752Z,3.4
2024-04-16T01:28:39.384Z,3.4
2024-04-16T01:30:19.826Z,3.4
2024-04-16T01:32:00.372Z,3.4
2024-04-16T01:33:40.667Z,4
2024-04-16T01:35:21.147Z,4
2024-04-16T01:37:01.582Z,4
2024-04-16T01:38:41.985Z,4
2024-04-16T01:40:22.460Z,4
2024-04-16T01:42:02.783Z,4
2024-04-16T01:43:43.227Z,4.1
2024-04-16T01:45:23.680Z,4.1
2024-04-16T01:47:04.069Z,4.1
2024-04-16T01:48:44.470Z,4.1
2024-04-16T01:50:24.880Z,4.1
2024-04-16T01:52:05.345Z,6.6
2024-04-16T01:53:45.769Z,6.6
2024-04-16T01:55:26.236Z,6.6
2024-04-16T01:57:06.592Z,6.6
2024-04-16T01:58:46.943Z,6.6
2024-04-16T02:00:27.402Z,6.6
2024-04-16T02:02:07.799Z,6.6
2024-04-16T02:03:48.233Z,4
2024-04-16T02:05:28.606Z,4
2024-04-16T02:07:09.126Z,4
2024-04-16T02:08:49.454Z,4
2024-04-16T02:10:29.904Z,4
2024-04-16T02:12:10.295Z,4
2024-04-16T02:13:50.564Z,5
2024-04-16T02:15:30.931Z,5
2024-04-16T02:17:11.377Z,5
2024-04-16T02:18:51.804Z,5
2024-04-16T02:20:32.209Z,5
2024-04-16T02:22:12.564Z,5
2024-04-16T02:23:52.981Z,3.4
2024-04-16T02:25:33.477Z,3.4
2024-04-16T02:27:13.780Z,3.4
2024-04-16T02:28:54.204Z,3.4
2024-04-16T02:30:34.600Z,3.4
2024-04-16T02:32:15.039Z,3.4
2024-04-16T02:33:55.510Z,6.1
2024-04-16T02:35:35.949Z,6.1
2024-04-16T02:37:17.719Z,6.1
2024-04-16T02:38:56.729Z,6.1
2024-04-16T02:40:37.307Z,6.1
2024-04-16T02:42:17.533Z,6.1
2024-04-16T02:43:57.960Z,4.9
2024-04-16T02:45:38.447Z,4.9
2024-04-16T02:47:18.873Z,4.9
2024-04-16T02:48:59.393Z,4.9
2024-04-16T02:50:39.746Z,4.9
2024-04-16T02:52:20.152Z,4.9
2024-04-16T02:54:00.666Z,3.2
2024-04-16T02:55:41.069Z,3.2
2024-04-16T02:57:21.446Z,3.2
2024-04-16T02:59:01.876Z,3.2
2024-04-16T03:00:42.326Z,3.2
2024-04-16T03:02:22.705Z,3.2
2024-04-16T03:04:03.129Z,3.5
2024-04-16T03:05:43.532Z,3.5
2024-04-16T03:07:23.938Z,3.5
2024-04-16T03:09:04.258Z,3.5
2024-04-16T03:10:44.787Z,3.5
2024-04-16T03:12:25.109Z,3.5
2024-04-16T03:14:05.499Z,2.9
2024-04-16T03:15:45.834Z,2.9
2024-04-16T03:17:26.346Z,2.9
2024-04-16T03:19:06.858Z,2.9
2024-04-16T03:20:47.252Z,2.9
2024-04-16T03:22:27.744Z,2.9
2024-04-16T03:24:08.022Z,2.9
2024-04-16T03:25:48.435Z,2.9
2024-04-16T03:27:28.832Z,2.9
2024-04-16T03:29:09.327Z,2.9
2024-04-16T03:30:49.765Z,2.9
2024-04-16T03:32:30.285Z,2.9
2024-04-16T03:34:10.625Z,4.2
2024-04-16T03:35:51.105Z,4.2
2024-04-16T03:37:33.255Z,4.2
2024-04-16T03:39:11.911Z,4.2
2024-04-16T03:40:52.346Z,4.2
2024-04-16T03:42:32.812Z,4.2
2024-04-16T03:44:13.177Z,1.8
2024-04-16T03:45:53.637Z,1.8
2024-04-16T03:47:34.136Z,1.8
2024-04-16T03:49:14.536Z,1.8
2024-04-16T03:50:54.934Z,1.8
2024-04-16T03:54:15.846Z,3.6
2024-04-16T03:55:56.287Z,3.6
2024-04-16T03:57:36.694Z,3.6
2024-04-16T03:59:17.122Z,3.6
2024-04-16T04:00:57.603Z,3.6
2024-04-16T04:02:37.897Z,3.6
2024-04-16T04:04:18.421Z,6.6
2024-04-16T04:05:58.684Z,6.6
2024-04-16T04:07:39.250Z,6.6
2024-04-16T04:09:19.588Z,6.6
2024-04-16T04:11:00.099Z,6.6
2024-04-16T04:12:40.512Z,6.6
2024-04-16T04:14:20.880Z,4.1
2024-04-16T04:16:01.481Z,4.1
2024-04-16T04:17:41.795Z,4.1
2024-04-16T04:19:22.244Z,4.1
2024-04-16T04:21:02.621Z,4.1
2024-04-16T04:22:43.474Z,4.1
2024-04-16T04:24:32.841Z,4.1
2024-04-16T04:26:03.983Z,4.1
2024-04-16T04:27:44.395Z,4.1
2024-04-16T04:29:24.800Z,4.1
2024-04-16T04:31:05.294Z,4.1
2024-04-16T04:32:45.805Z,4.1
2024-04-16T04:34:26.132Z,2.5
2024-04-16T04:36:06.557Z,2.5
2024-04-16T04:37:47.093Z,2.5
2024-04-16T04:39:27.654Z,2.5
2024-04-16T04:41:08.075Z,2.5
2024-04-16T04:42:48.582Z,2.5
2024-04-16T04:44:29.086Z,3.6
2024-04-16T04:46:09.487Z,3.6
2024-04-16T04:47:50.064Z,3.6
2024-04-16T04:49:30.282Z,3.6
2024-04-16T04:51:10.687Z,3.6
2024-04-16T04:52:51.334Z,3.6
2024-04-16T04:54:31.660Z,5.9
2024-04-16T04:56:12.164Z,5.9
2024-04-16T04:57:52.594Z,5.9
2024-04-16T04:59:33.090Z,5.9
2024-04-16T05:01:13.547Z,5.9
2024-04-16T05:02:54.003Z,5.9
2024-04-16T05:04:34.323Z,4.4
2024-04-16T05:06:14.766Z,4.4
2024-04-16T05:07:55.195Z,4.4
2024-04-16T05:09:35.556Z,4.4
2024-04-16T05:11:16.065Z,4.4
2024-04-16T05:12:56.413Z,4.4
2024-04-16T05:14:36.858Z,2.8
2024-04-16T05:16:17.215Z,2.8
2024-04-16T05:17:57.652Z,2.8
2024-04-16T05:19:38.192Z,2.8
2024-04-16T05:21:18.428Z,2.8
2024-04-16T05:22:59.344Z,2.8
2024-04-16T05:24:39.346Z,2.4
2024-04-16T05:26:19.744Z,2.4
2024-04-16T05:28:00.284Z,2.4
2024-04-16T05:29:40.513Z,2.4
2024-04-16T05:31:21.077Z,2.4
2024-04-16T05:33:01.470Z,2.4
2024-04-16T05:34:41.951Z,2.5
2024-04-16T05:36:22.328Z,2.5
2024-04-16T05:38:02.740Z,2.5
2024-04-16T05:39:43.194Z,2.5
2024-04-16T05:41:23.582Z,2.5
2024-04-16T05:43:03.991Z,2.5
2024-04-16T05:44:44.376Z,2.4
2024-04-16T05:46:24.823Z,2.4
2024-04-16T05:48:05.429Z,2.4
2024-04-16T05:49:45.700Z,2.4
2024-04-16T05:51:26.069Z,2.4
2024-04-16T05:53:06.526Z,2.4
2024-04-16T05:54:46.873Z,3.2
2024-04-16T05:56:27.324Z,3.2
2024-04-16T05:58:07.673Z,3.2
2024-04-16T05:59:48.058Z,3.2
2024-04-16T06:01:28.472Z,3.2
2024-04-16T06:03:08.842Z,3.2
2024-04-16T06:04:49.334Z,2.5
2024-04-16T06:06:29.681Z,2.5
2024-04-16T06:08:10.095Z,2.5
2024-04-16T06:09:50.575Z,2.5
2024-04-16T06:11:30.973Z,2.5
2024-04-16T06:13:11.449Z,2.5
2024-04-16T06:14:51.863Z,3.9
2024-04-16T06:16:32.344Z,3.9
2024-04-16T06:18:12.748Z,3.9
2024-04-16T06:19:53.146Z,3.9
2024-04-16T06:21:33.573Z,3.9
2024-04-16T06:23:13.966Z,3.9
2024-04-16T06:24:54.342Z,2.1
2024-04-16T06:26:34.775Z,2.1
2024-04-16T06:28:15.276Z,2.1
2024-04-16T06:29:55.661Z,2.1
2024-04-16T06:31:36.110Z,2.1
2024-04-16T06:33:16.516Z,2.1
2024-04-16T06:34:56.919Z,1.4
2024-04-16T06:36:38.642Z,1.4
2024-04-16T06:38:17.695Z,1.4
2024-04-16T06:39:58.127Z,1.4
2024-04-16T06:41:38.535Z,1.4
2024-04-16T06:43:19.064Z,1.4
2024-04-16T06:44:59.504Z,2.6
2024-04-16T06:46:39.948Z,2.6
2024-04-16T06:48:20.357Z,2.6
2024-04-16T06:50:00.725Z,2.6
2024-04-16T06:51:41.090Z,2.6
2024-04-16T06:53:21.447Z,2.6
2024-04-16T06:55:01.981Z,3.2
2024-04-16T06:56:42.376Z,3.2
2024-04-16T06:58:22.807Z,3.2
2024-04-16T07:00:03.258Z,3.2
2024-04-16T07:01:43.788Z,3.2
2024-04-16T07:03:24.097Z,3.2
2024-04-16T07:05:04.528Z,2.95
2024-04-16T07:06:45.014Z,2.95
2024-04-16T07:08:25.381Z,2.95
2024-04-16T07:10:05.809Z,2.95
2024-04-16T07:11:46.270Z,2.95
2024-04-16T07:13:26.753Z,2.95
2024-04-16T07:15:07.105Z,1.5
2024-04-16T07:16:47.484Z,1.5
2024-04-16T07:18:28.147Z,1.5
2024-04-16T07:20:08.477Z,1.5
2024-04-16T07:21:48.942Z,1.5
2024-04-16T07:23:29.361Z,1.5
2024-04-16T07:25:09.736Z,1.9
2024-04-16T07:26:50.158Z,1.9
2024-04-16T07:28:30.629Z,1.9
2024-04-16T07:30:10.982Z,1.9
2024-04-16T07:31:51.696Z,1.9
2024-04-16T07:33:32.018Z,1.9
2024-04-16T07:35:12.252Z,2.4
2024-04-16T07:36:52.630Z,2.4
2024-04-16T07:38:33.135Z,2.4
2024-04-16T07:40:13.620Z,2.4
2024-04-16T07:41:54.068Z,2.4
2024-04-16T07:43:34.596Z,2.4
2024-04-16T07:45:14.847Z,1.4
2024-04-16T07:46:55.470Z,1.4
2024-04-16T07:48:35.888Z,1.4
2024-04-16T07:50:16.236Z,1.4
2024-04-16T07:51:56.643Z,1.4
2024-04-16T07:53:37.166Z,1.4
2024-04-16T07:55:17.539Z,2.2
2024-04-16T07:56:57.949Z,2.2
2024-04-16T07:58:38.525Z,2.2
2024-04-16T08:00:18.741Z,2.2
2024-04-16T08:01:59.163Z,2.2
2024-04-16T08:03:39.552Z,2.2
2024-04-16T08:05:19.938Z,2
2024-04-16T08:07:00.408Z,2
2024-04-16T08:08:40.777Z,2
2024-04-16T08:10:21.340Z,2
2024-04-16T08:12:01.861Z,2
2024-04-16T08:13:42.494Z,2
2024-04-16T08:15:22.475Z,2
2024-04-16T08:17:02.975Z,0.7
2024-04-16T08:18:43.342Z,0.7
2024-04-16T08:20:23.815Z,0.7
2024-04-16T08:22:08.936Z,0.7
2024-04-16T08:23:44.663Z,0.7
2024-04-16T08:25:25.129Z,1.1
2024-04-16T08:27:05.538Z,1.1
2024-04-16T08:28:45.850Z,1.1
2024-04-16T08:30:26.148Z,1.1
2024-04-16T08:32:09.162Z,1.1
2024-04-16T08:33:47.164Z,1.1
2024-04-16T08:35:27.611Z,1
2024-04-16T08:37:08.000Z,1
2024-04-16T08:38:48.349Z,1
2024-04-16T08:40:28.770Z,1
2024-04-16T08:42:09.092Z,1
2024-04-16T08:43:49.545Z,1
2024-04-16T08:45:29.946Z,1
2024-04-16T08:47:10.281Z,1.2
2024-04-16T08:48:50.728Z,1.2
2024-04-16T08:50:31.201Z,1.2
2024-04-16T08:52:11.665Z,1.2
2024-04-16T08:53:52.093Z,1.2
2024-04-16T08:55:32.513Z,1.2
2024-04-16T08:57:12.937Z,1.2
2024-04-16T08:58:53.316Z,1.2
2024-04-16T09:00:33.754Z,1.2
2024-04-16T09:02:14.290Z,1.2
2024-04-16T09:03:54.602Z,1.2
2024-04-16T09:05:35.062Z,1.2
2024-04-16T09:07:15.425Z,0.7
2024-04-16T09:09:05.949Z,0.7
2024-04-16T09:10:36.251Z,0.7
2024-04-16T09:12:16.602Z,0.7
2024-04-16T09:13:56.989Z,0.7
2024-04-16T09:15:37.328Z,0.7
2024-04-16T09:17:17.922Z,0.9
2024-04-16T09:18:58.073Z,0.9
2024-04-16T09:20:38.451Z,0.9
2024-04-16T09:22:19.080Z,0.9
2024-04-16T09:23:59.292Z,0.9
2024-04-16T09:25:39.965Z,0.9
2024-04-16T09:27:20.162Z,1.3
2024-04-16T09:29:00.603Z,1.3
2024-04-16T09:30:40.926Z,1.3
2024-04-16T09:32:21.420Z,1.3
2024-04-16T09:34:01.988Z,1.3
2024-04-16T09:35:42.268Z,1.3
2024-04-16T09:37:22.780Z,0.9
2024-04-16T09:39:03.156Z,0.9
2024-04-16T09:40:43.477Z,0.9
2024-04-16T09:42:23.777Z,0.9
2024-04-16T09:44:04.213Z,0.9
2024-04-16T09:45:44.655Z,0.9
2024-04-16T09:47:25.145Z,1.8
2024-04-16T09:49:05.543Z,1.8
2024-04-16T09:50:54.064Z,1.8
2024-04-16T09:52:26.358Z,1.8
2024-04-16T09:54:06.789Z,1.8
2024-04-16T09:55:47.271Z,1.8
2024-04-16T09:57:27.637Z,2
2024-04-16T09:59:08.102Z,2
2024-04-16T10:00:48.626Z,2
2024-04-16T10:02:30.229Z,2
2024-04-16T10:04:09.502Z,2
2024-04-16T10:05:49.806Z,2
2024-04-16T10:07:30.252Z,1.8
2024-04-16T10:09:10.638Z,1.8
2024-04-16T10:10:51.259Z,1.8
2024-04-16T10:12:31.479Z,1.8
2024-04-16T10:14:13.000Z,1.8
2024-04-16T10:15:52.318Z,1.8
2024-04-16T10:17:32.795Z,1.3
2024-04-16T10:19:13.170Z,1.3
2024-04-16T10:20:53.567Z,1.3
2024-04-16T10:22:44.167Z,1.3
2024-04-16T10:24:14.319Z,1.3
2024-04-16T10:25:54.786Z,1.3
2024-04-16T10:27:35.210Z,1.6
2024-04-16T10:29:15.553Z,1.6
2024-04-16T10:30:55.977Z,1.6
2024-04-16T10:32:36.495Z,1.6
2024-04-16T10:34:16.922Z,1.6
2024-04-16T10:35:57.326Z,1.6
2024-04-16T10:37:37.820Z,0.7
2024-04-16T10:39:18.139Z,0.7
2024-04-16T10:40:58.531Z,0.7
2024-04-16T10:42:38.944Z,0.7
2024-04-16T10:44:19.399Z,0.7
2024-04-16T10:45:59.822Z,0.7
2024-04-16T10:47:40.273Z,0.4
2024-04-16T10:49:20.798Z,0.4
2024-04-16T10:51:01.225Z,0.4
2024-04-16T10:52:41.640Z,0.4
2024-04-16T10:54:22.089Z,0.4
2024-04-16T10:56:02.420Z,0.4
2024-04-16T10:57:42.975Z,0.4
2024-04-16T10:59:23.416Z,0.4
2024-04-16T11:01:03.854Z,0.4
2024-04-16T11:02:44.359Z,0.4
2024-04-16T11:04:24.912Z,0.4
2024-04-16T11:06:05.135Z,0.4
2024-04-16T11:07:45.689Z,9.5
2024-04-16T11:09:25.944Z,9.5
2024-04-16T11:11:06.422Z,9.5
2024-04-16T11:12:46.694Z,9.5
2024-04-16T11:14:27.151Z,9.5
2024-04-16T11:16:07.577Z,9.5
2024-04-16T11:17:48.092Z,1
2024-04-16T11:19:28.440Z,1
2024-04-16T11:21:08.794Z,1
2024-04-16T11:22:49.198Z,1
2024-04-16T11:24:29.556Z,1
2024-04-16T11:26:09.960Z,1
2024-04-16T11:27:50.596Z,0.8
2024-04-16T11:29:30.904Z,0.8
2024-04-16T11:31:11.406Z,0.8
2024-04-16T11:32:51.876Z,0.8
2024-04-16T11:34:32.298Z,0.8
2024-04-16T11:36:14.350Z,0.8
2024-04-16T11:37:53.099Z,0.6
2024-04-16T11:39:33.483Z,0.6
2024-04-16T11:41:14.347Z,0.6
2024-04-16T11:42:54.347Z,0.6
2024-04-16T11:44:34.815Z,0.6
2024-04-16T11:46:15.247Z,0.6
2024-04-16T11:47:55.838Z,0.9
2024-04-16T11:49:36.099Z,0.9
2024-04-16T11:51:16.388Z,0.9
2024-04-16T11:52:56.818Z,0.9
2024-04-16T11:54:37.201Z,0.9
2024-04-16T11:56:17.696Z,0.9
2024-04-16T11:57:58.033Z,1.6
2024-04-16T11:59:38.494Z,1.6
2024-04-16T12:01:18.984Z,1.6
2024-04-16T12:02:59.320Z,1.6
2024-04-16T12:04:39.732Z,1.6
2024-04-16T12:06:20.092Z,1.6
2024-04-16T12:08:00.439Z,0.6
2024-04-16T12:09:40.867Z,0.6
2024-04-16T12:11:21.335Z,0.6
2024-04-16T12:13:01.816Z,0.6
2024-04-16T12:14:42.303Z,0.6
2024-04-16T12:16:22.801Z,0.6
2024-04-16T12:18:03.212Z,0.4
2024-04-16T12:19:43.655Z,0.4
2024-04-16T12:21:23.923Z,0.4
2024-04-16T12:23:04.403Z,0.4
2024-04-16T12:24:44.898Z,0.4
2024-04-16T12:26:25.290Z,0.4
2024-04-16T12:28:05.817Z,0.5
2024-04-16T12:29:46.205Z,0.5
2024-04-16T12:31:26.650Z,0.5
2024-04-16T12:33:15.241Z,0.5
2024-04-16T12:34:47.515Z,0.5
2024-04-16T12:36:27.883Z,0.5
2024-04-16T12:38:08.366Z,1.5
2024-04-16T12:39:48.679Z,1.5
2024-04-16T12:41:29.128Z,1.5
2024-04-16T12:43:09.979Z,1.5
2024-04-16T12:44:49.903Z,1.5
2024-04-16T12:46:30.320Z,1.5
2024-04-16T12:48:10.809Z,0.3
2024-04-16T12:49:51.120Z,0.3
2024-04-16T12:51:31.577Z,0.3
2024-04-16T12:53:12.053Z,0.3
2024-04-16T12:54:52.411Z,0.3
2024-04-16T12:56:32.813Z,0.3
2024-04-16T12:58:13.153Z,0.3
2024-04-16T12:59:53.507Z,0.3
2024-04-16T13:01:34.130Z,0.3
2024-04-16T13:03:14.341Z,0.3
2024-04-16T13:04:54.867Z,0.3
2024-04-16T13:06:35.228Z,0.3
2024-04-16T13:08:18.335Z,0.85
2024-04-16T13:09:56.145Z,0.85
2024-04-16T13:11:36.632Z,0.85
2024-04-16T13:13:17.110Z,0.85
2024-04-16T13:14:57.481Z,0.85
2024-04-16T13:16:37.914Z,0.85
2024-04-16T13:18:18.332Z,0.95
2024-04-16T13:19:58.815Z,0.95
2024-04-16T13:21:39.216Z,0.95
2024-04-16T13:23:19.540Z,0.95
2024-04-16T13:24:59.962Z,0.95
2024-04-16T13:26:40.378Z,0.95
2024-04-16T13:28:20.955Z,0.95
2024-04-16T13:30:01.355Z,0.95
2024-04-16T13:31:41.817Z,0.95
2024-04-16T13:33:22.200Z,0.95
2024-04-16T13:35:02.734Z,0.95
2024-04-16T13:36:43.058Z,0.95
2024-04-16T13:38:23.478Z,1.2
2024-04-16T13:40:03.936Z,1.2
2024-04-16T13:41:44.289Z,1.2
2024-04-16T13:43:24.716Z,1.2
2024-04-16T13:45:05.074Z,1.2
2024-04-16T13:46:45.591Z,1.2
2024-04-16T13:48:26.112Z,0.5
2024-04-16T13:50:06.255Z,0.5
2024-04-16T13:51:46.687Z,0.5
2024-04-16T13:53:27.095Z,0.5
2024-04-16T13:55:07.412Z,0.5
2024-04-16T13:56:47.868Z,0.5
2024-04-16T13:58:28.270Z,1.4
2024-04-16T14:00:08.691Z,1.4
2024-04-16T14:01:49.202Z,1.4
2024-04-16T14:03:29.593Z,1.4
2024-04-16T14:05:10.030Z,1.4
2024-04-16T14:06:50.456Z,1.4
2024-04-16T14:08:30.907Z,1.7
2024-04-16T14:10:11.413Z,1.7
2024-04-16T14:11:51.786Z,1.7
2024-04-16T14:13:32.194Z,1.7
2024-04-16T14:15:12.642Z,1.7
2024-04-16T14:16:53.169Z,1.7
2024-04-16T14:18:33.439Z,1
2024-04-16T14:20:13.964Z,1
2024-04-16T14:21:57.740Z,1
2024-04-16T14:23:34.731Z,1
2024-04-16T14:25:15.198Z,1
2024-04-16T14:26:55.606Z,1
2024-04-16T14:28:35.967Z,1
2024-04-16T14:30:16.428Z,1
2024-04-16T14:31:56.828Z,1
2024-04-16T14:33:37.265Z,1
2024-04-16T14:35:17.593Z,1
2024-04-16T14:36:57.979Z,1
2024-04-16T14:38:38.372Z,1.3
2024-04-16T14:40:18.878Z,1.3
2024-04-16T14:41:59.232Z,1.3
2024-04-16T14:43:39.675Z,1.3
2024-04-16T14:45:22.377Z,1.3
2024-04-16T14:47:00.620Z,1.3
2024-04-16T14:48:41.088Z,0.7
2024-04-16T14:50:21.479Z,0.7
2024-04-16T14:52:01.943Z,0.7
2024-04-16T14:53:42.336Z,0.7
2024-04-16T14:55:23.136Z,0.7
2024-04-16T14:57:03.129Z,0.7
2024-04-16T14:58:43.625Z,1.9
2024-04-16T15:00:24.161Z,1.9
2024-04-16T15:02:04.409Z,1.9
2024-04-16T15:03:44.859Z,1.9
2024-04-16T15:05:25.180Z,1.9
2024-04-16T15:07:05.630Z,1.9
2024-04-16T15:08:45.981Z,1.7
2024-04-16T15:10:26.502Z,1.7
2024-04-16T15:12:06.926Z,1.7
2024-04-16T15:13:47.416Z,1.7
2024-04-16T15:15:27.856Z,1.7
2024-04-16T15:17:08.344Z,1.7
2024-04-16T15:18:48.715Z,1.4
2024-04-16T15:20:29.206Z,1.4
2024-04-16T15:22:09.646Z,1.4
2024-04-16T15:23:50.081Z,1.4
2024-04-16T15:25:30.488Z,1.4
2024-04-16T15:27:10.907Z,1.4
2024-04-16T15:28:51.388Z,1.5
2024-04-16T15:30:31.775Z,1.5
2024-04-16T15:32:12.273Z,1.5
2024-04-16T15:33:52.723Z,1.5
2024-04-16T15:35:33.160Z,1.5
2024-04-16T15:37:13.580Z,1.5
2024-04-16T15:38:53.988Z,1
2024-04-16T15:40:34.336Z,1
2024-04-16T15:42:14.756Z,1
2024-04-16T15:43:55.303Z,1
2024-04-16T15:45:35.711Z,1
2024-04-16T15:47:18.784Z,1
2024-04-16T15:48:56.400Z,1
2024-04-16T15:50:36.824Z,1
2024-04-16T15:52:17.242Z,1
2024-04-16T15:53:57.698Z,1
2024-04-16T15:55:38.151Z,1
2024-04-16T15:57:18.696Z,1
2024-04-16T15:58:59.205Z,1.1
2024-04-16T16:00:39.637Z,1.1
2024-04-16T16:02:20.235Z,1.1
2024-04-16T16:04:00.623Z,1.1
2024-04-16T16:05:40.932Z,1.1
2024-04-16T16:07:21.300Z,1.1
2024-04-16T16:09:01.713Z,1.1
2024-04-16T16:10:42.231Z,1.1
2024-04-16T16:12:22.497Z,1.1
2024-04-16T16:14:02.961Z,1.1
2024-04-16T16:15:43.295Z,1.1
2024-04-16T16:17:23.760Z,1.1
2024-04-16T16:19:04.092Z,1.3
2024-04-16T16:20:46.123Z,1.3
2024-04-16T16:22:24.853Z,1.3
2024-04-16T16:24:05.316Z,1.3
2024-04-16T16:25:45.776Z,1.3
2024-04-16T16:27:26.058Z,1.3
2024-04-16T16:29:06.610Z,2.2
2024-04-16T16:30:46.900Z,2.2
2024-04-16T16:32:27.524Z,2.2
2024-04-16T16:34:07.848Z,2.2
2024-04-16T16:35:48.315Z,2.2
2024-04-16T16:37:28.738Z,2.2
2024-04-16T16:39:12.055Z,1.35
2024-04-16T16:40:49.621Z,1.35
2024-04-16T16:42:30.076Z,1.35
2024-04-16T16:44:10.539Z,1.35
2024-04-16T16:45:51.050Z,1.35
2024-04-16T16:47:31.478Z,1.35
2024-04-16T16:49:11.938Z,2
2024-04-16T16:50:52.261Z,2
2024-04-16T16:52:32.733Z,2
2024-04-16T16:54:13.018Z,2
2024-04-16T16:55:53.499Z,2
2024-04-16T16:57:33.834Z,2
2024-04-16T16:59:14.262Z,2.5
2024-04-16T17:00:54.758Z,2.5
2024-04-16T17:02:35.268Z,2.5
2024-04-16T17:04:15.691Z,2.5
2024-04-16T17:05:56.087Z,2.5
2024-04-16T17:07:36.477Z,2.5
2024-04-16T17:09:16.828Z,1.4
2024-04-16T17:10:57.404Z,1.4
2024-04-16T17:12:37.718Z,1.4
2024-04-16T17:14:18.129Z,1.4
2024-04-16T17:15:58.514Z,1.4
2024-04-16T17:17:39.040Z,1.4
2024-04-16T17:19:19.410Z,1.4
2024-04-16T17:20:59.844Z,1.6
2024-04-16T17:22:40.346Z,1.6
2024-04-16T17:24:20.740Z,1.6
2024-04-16T17:26:01.225Z,1.6
2024-04-16T17:27:41.442Z,1.6
2024-04-16T17:29:21.921Z,1.6
2024-04-16T17:31:02.337Z,1
2024-04-16T17:32:42.852Z,1
2024-04-16T17:34:23.374Z,1
2024-04-16T17:36:03.628Z,1
2024-04-16T17:37:44.124Z,1
2024-04-16T17:39:24.433Z,1
2024-04-16T17:41:04.888Z,1.5
2024-04-16T17:42:45.322Z,1.5
2024-04-16T17:44:25.735Z,1.5
2024-04-16T17:46:06.097Z,1.5
2024-04-16T17:47:46.623Z,1.5
2024-04-16T17:49:26.952Z,1.5
2024-04-16T17:51:07.491Z,2.9
2024-04-16T17:52:47.829Z,2.9
2024-04-16T17:54:28.179Z,2.9
2024-04-16T17:56:08.613Z,2.9
2024-04-16T17:57:49.016Z,2.9
2024-04-16T17:59:29.497Z,2.9
2024-04-16T18:01:10.032Z,1.8
2024-04-16T18:02:50.468Z,1.8
2024-04-16T18:04:30.832Z,1.8
2024-04-16T18:06:11.233Z,1.8
2024-04-16T18:07:51.758Z,1.8
2024-04-16T18:09:32.150Z,1.8
2024-04-16T18:11:13.818Z,2.4
2024-04-16T18:12:52.969Z,2.4
2024-04-16T18:14:33.553Z,2.4
2024-04-16T18:16:14.036Z,2.4
2024-04-16T18:17:54.474Z,2.4
2024-04-16T18:19:34.767Z,2.4
2024-04-16T18:21:15.114Z,2.4
2024-04-16T18:22:55.591Z,2.4
2024-04-16T18:24:35.979Z,2.4
2024-04-16T18:26:16.392Z,2.4
2024-04-16T18:27:56.803Z,2.4
2024-04-16T18:29:37.206Z,2.4
2024-04-16T18:31:18.068Z,2.9
2024-04-16T18:32:58.034Z,2.9
2024-04-16T18:34:38.514Z,2.9
2024-04-16T18:36:18.929Z,2.9
2024-04-16T18:37:59.313Z,2.9
2024-04-16T18:39:39.686Z,2.9
2024-04-16T18:41:20.107Z,3.6
2024-04-16T18:43:00.499Z,3.6
2024-04-16T18:44:40.802Z,3.6
2024-04-16T18:46:21.239Z,3.6
2024-04-16T18:48:01.858Z,3.6
2024-04-16T18:49:42.125Z,3.6
2024-04-16T18:51:22.489Z,5.8
2024-04-16T18:53:02.952Z,5.8
2024-04-16T18:54:43.283Z,5.8
2024-04-16T18:56:23.667Z,5.8
2024-04-16T18:58:04.137Z,5.8
2024-04-16T18:59:44.495Z,5.8
2024-04-16T19:01:24.907Z,4.4
2024-04-16T19:03:05.504Z,4.4
2024-04-16T19:04:45.821Z,4.4
2024-04-16T19:06:26.248Z,4.4
2024-04-16T19:08:06.689Z,4.4
2024-04-16T19:09:47.097Z,4.4
2024-04-16T19:11:27.638Z,5.7
2024-04-16T19:13:07.995Z,5.7
2024-04-16T19:14:48.318Z,5.7
2024-04-16T19:16:29.175Z,5.7
2024-04-16T19:18:09.240Z,5.7
2024-04-16T19:19:49.594Z,5.7
2024-04-16T19:21:30.009Z,5.6
2024-04-16T19:23:10.430Z,5.6
2024-04-16T19:24:50.878Z,5.6
2024-04-16T19:26:31.270Z,5.6
2024-04-16T19:28:11.640Z,5.6
2024-04-16T19:29:52.017Z,5.6
2024-04-16T19:31:36.924Z,3.3
2024-04-16T19:33:12.800Z,3.3
2024-04-16T19:34:53.094Z,3.3
2024-04-16T19:36:33.530Z,3.3
2024-04-16T19:38:13.990Z,3.3
2024-04-16T19:39:54.379Z,3.3
2024-04-16T19:41:34.854Z,4.9
2024-04-16T19:43:15.339Z,4.9
2024-04-16T19:44:55.770Z,4.9
2024-04-16T19:46:36.245Z,4.9
2024-04-16T19:48:16.697Z,4.9
2024-04-16T19:49:57.055Z,4.9
2024-04-16T19:51:37.367Z,5.3
2024-04-16T19:53:17.764Z,5.3
2024-04-16T19:54:58.208Z,5.3
2024-04-16T19:56:38.632Z,5.3
2024-04-16T19:58:19.034Z,5.3
2024-04-16T19:59:59.383Z,5.3
2024-04-16T20:01:39.769Z,6.5
2024-04-16T20:03:20.171Z,6.5
2024-04-16T20:05:00.702Z,6.5
2024-04-16T20:06:41.093Z,6.5
2024-04-16T20:08:21.513Z,6.5
2024-04-16T20:10:01.945Z,6.5
2024-04-16T20:11:42.334Z,4
2024-04-16T20:13:22.719Z,4
2024-04-16T20:15:03.065Z,4
2024-04-16T20:16:43.519Z,4
2024-04-16T20:18:24.055Z,4
2024-04-16T20:20:04.369Z,4
2024-04-16T20:21:44.718Z,7.4
2024-04-16T20:23:25.127Z,7.4
2024-04-16T20:25:05.504Z,7.4
2024-04-16T20:26:45.896Z,7.4
2024-04-16T20:28:26.337Z,7.4
2024-04-16T20:30:06.762Z,7.4
2024-04-16T20:31:47.331Z,5.6
2024-04-16T20:33:27.687Z,5.6
2024-04-16T20:35:08.047Z,5.6
2024-04-16T20:36:48.550Z,5.6
2024-04-16T20:38:28.933Z,5.6
2024-04-16T20:40:09.366Z,5.6
2024-04-16T20:41:49.690Z,4.7
2024-04-16T20:43:30.095Z,4.7
2024-04-16T20:45:10.477Z,4.7
2024-04-16T20:46:50.841Z,4.7
2024-04-16T20:48:31.305Z,4.7
2024-04-16T20:50:11.699Z,4.7
2024-04-16T20:51:52.071Z,4.8
2024-04-16T20:53:32.467Z,4.8
2024-04-16T20:55:12.943Z,4.8
2024-04-16T20:56:53.300Z,4.8
2024-04-16T20:58:33.746Z,4.8
2024-04-16T21:00:14.181Z,4.8
2024-04-16T21:01:54.682Z,4.4
2024-04-16T21:03:35.130Z,4.4
2024-04-16T21:05:15.524Z,4.4
2024-04-16T21:06:55.949Z,4.4
2024-04-16T21:08:36.372Z,4.4
2024-04-16T21:10:16.749Z,4.4
2024-04-16T21:11:57.134Z,4.4
2024-04-16T21:13:37.627Z,4.4
2024-04-16T21:15:18.122Z,4.4
2024-04-16T21:16:58.508Z,4.4
2024-04-16T21:18:38.981Z,4.4
2024-04-16T21:20:19.388Z,4.4
2024-04-16T21:21:59.804Z,5.2
2024-04-16T21:23:40.228Z,5.2
2024-04-16T21:25:20.661Z,5.2
2024-04-16T21:27:01.040Z,5.2
2024-04-16T21:28:41.470Z,5.2
2024-04-16T21:30:22.044Z,5.2
2024-04-16T21:32:02.434Z,3.7
2024-04-16T21:33:42.755Z,3.7
2024-04-16T21:35:23.172Z,3.7
2024-04-16T21:37:03.638Z,3.7
2024-04-16T21:38:44.024Z,3.7
2024-04-16T21:40:24.479Z,3.7
2024-04-16T21:42:04.781Z,3.4
2024-04-16T21:43:45.332Z,3.4
2024-04-16T21:45:25.700Z,3.4
2024-04-16T21:47:06.276Z,3.4
2024-04-16T21:48:46.630Z,3.4
2024-04-16T21:50:27.045Z,3.4
2024-04-16T21:52:07.486Z,3.5
2024-04-16T21:53:47.928Z,3.5
2024-04-16T21:55:28.382Z,3.5
2024-04-16T21:57:08.743Z,3.5
2024-04-16T21:58:49.312Z,3.5
2024-04-16T22:00:29.633Z,0
2024-04-16T22:02:10.186Z,0
2024-04-16T22:03:50.567Z,0
2024-04-16T22:05:30.856Z,0
2024-04-16T22:07:11.286Z,0
2024-04-16T22:08:51.795Z,0
2024-04-16T22:10:32.199Z,1.8
2024-04-16T22:12:12.549Z,1.8
2024-04-16T22:13:53.009Z,1.8
2024-04-16T22:15:33.476Z,1.8
2024-04-16T22:17:13.784Z,1.8
2024-04-16T22:18:54.217Z,1.8
2024-04-16T22:20:34.692Z,1.3
2024-04-16T22:22:15.121Z,1.3
2024-04-16T22:23:55.577Z,1.3
2024-04-16T22:25:35.993Z,1.3
2024-04-16T22:27:16.309Z,1.3
2024-04-16T22:28:56.753Z,1.3
2024-04-16T22:30:37.066Z,1.3
2024-04-16T22:32:17.617Z,1.3
2024-04-16T22:33:57.999Z,1.3
2024-04-16T22:35:38.372Z,1.3
2024-04-16T22:37:18.854Z,1.3
2024-04-16T22:38:59.158Z,1.3
2024-04-16T22:40:39.633Z,1.6
2024-04-16T22:42:20.026Z,1.6
2024-04-16T22:44:00.559Z,1.6
2024-04-16T22:45:40.893Z,1.6
2024-04-16T22:47:21.376Z,1.6
2024-04-16T22:49:01.893Z,1.6
2024-04-16T22:50:42.348Z,1.8
2024-04-16T22:52:22.812Z,1.8
2024-04-16T22:54:03.134Z,1.8
2024-04-16T22:55:43.642Z,1.8
2024-04-16T22:57:24.022Z,1.8
2024-04-16T22:59:04.456Z,1.8
2024-04-16T23:00:44.873Z,1.8
2024-04-16T23:02:25.453Z,1.4
2024-04-16T23:04:05.788Z,1.4
2024-04-16T23:05:46.190Z,1.4
2024-04-16T23:07:26.590Z,1.4
2024-04-16T23:09:07.041Z,1.4
2024-04-16T23:10:47.556Z,1.4
2024-04-16T23:12:27.878Z,2.9
2024-04-16T23:14:08.280Z,2.9